createdAt,value
2016-05-08T00:00:31.572Z,1006.84
2016-05-08T00:01:31.590Z,1006.8
2016-05-08T00:02:31.609Z,1006.71
2016-05-08T00:03:31.643Z,1006.68
2016-05-08T00:04:31.661Z,1006.7
2016-05-08T00:05:31.695Z,1006.71
2016-05-08T00:06:31.713Z,1006.75
2016-05-08T00:07:31.748Z,1006.72
2016-05-08T00:08:31.781Z,1006.79
2016-05-08T00:09:31.799Z,1006.77
2016-05-08T00:10:31.818Z,1006.76
2016-05-08T00:11:31.836Z,1006.75
2016-05-08T00:12:31.854Z,1006.7
2016-05-08T00:13:31.889Z,1006.74
2016-05-08T00:14:31.906Z,1006.76
2016-05-08T00:15:31.940Z,1006.67
2016-05-08T00:16:31.959Z,1006.7
2016-05-08T00:17:31.978Z,1006.73
2016-05-08T00:18:32.011Z,1006.72
2016-05-08T00:19:32.030Z,1006.76
2016-05-08T00:20:32.063Z,1006.79
2016-05-08T00:21:32.081Z,1006.82
2016-05-08T00:22:32.101Z,1006.75
2016-05-08T00:23:32.150Z,1006.74
2016-05-08T00:24:32.160Z,1006.78
2016-05-08T00:25:32.177Z,1006.79
2016-05-08T00:26:32.212Z,1006.81
2016-05-08T00:27:32.229Z,1006.79
2016-05-08T00:28:32.265Z,1006.82
2016-05-08T00:29:32.282Z,1006.83
2016-05-08T00:30:32.301Z,1006.77
2016-05-08T00:31:32.335Z,1006.8
2016-05-08T00:32:32.353Z,1006.79
2016-05-08T00:33:32.370Z,1006.78
2016-05-08T00:34:32.405Z,1006.8
2016-05-08T00:35:32.423Z,1006.81
2016-05-08T00:36:32.457Z,1006.8
2016-05-08T00:37:32.476Z,1006.81
2016-05-08T00:38:32.494Z,1006.79
2016-05-08T00:39:32.528Z,1006.79
2016-05-08T00:40:32.546Z,1006.81
2016-05-08T00:41:32.580Z,1006.84
2016-05-08T00:42:32.598Z,1006.81
2016-05-08T00:43:32.617Z,1006.81
2016-05-08T00:44:32.666Z,1006.85
2016-05-08T00:45:32.669Z,1006.86
2016-05-08T00:46:32.703Z,1006.81
2016-05-08T00:47:32.722Z,1006.8
2016-05-08T00:48:32.739Z,1006.82
2016-05-08T00:49:32.774Z,1006.85
2016-05-08T00:50:32.791Z,1006.85
2016-05-08T00:51:32.810Z,1006.84
2016-05-08T00:52:32.843Z,1006.84
2016-05-08T00:53:32.863Z,1006.88
2016-05-08T00:54:32.896Z,1006.91
2016-05-08T00:55:32.915Z,1006.91
2016-05-08T00:56:32.932Z,1006.96
2016-05-08T00:57:32.967Z,1006.92
2016-05-08T00:58:32.984Z,1006.88
2016-05-08T00:59:33.004Z,1006.85
2016-05-08T01:00:33.038Z,1006.92
2016-05-08T01:01:33.056Z,1006.9
2016-05-08T01:02:33.089Z,1006.89
2016-05-08T01:03:33.109Z,1006.87
2016-05-08T01:04:33.126Z,1006.91
2016-05-08T01:05:33.160Z,1006.85
2016-05-08T01:06:33.179Z,1006.87
2016-05-08T01:07:33.197Z,1006.85
2016-05-08T01:08:33.230Z,1006.92
2016-05-08T01:09:33.249Z,1006.9
2016-05-08T01:10:33.283Z,1006.9
2016-05-08T01:11:33.301Z,1006.89
2016-05-08T01:12:33.320Z,1006.88
2016-05-08T01:13:33.353Z,1006.87
2016-05-08T01:14:33.372Z,1006.88
2016-05-08T01:15:33.391Z,1006.9
2016-05-08T01:16:33.425Z,1006.89
2016-05-08T01:17:33.442Z,1006.89
2016-05-08T01:18:33.461Z,1006.89
2016-05-08T01:19:33.494Z,1006.87
2016-05-08T01:20:33.513Z,1006.87
2016-05-08T01:21:33.547Z,1006.88
2016-05-08T01:22:33.566Z,1006.91
2016-05-08T01:23:33.583Z,1006.88
2016-05-08T01:24:33.618Z,1006.88
2016-05-08T01:25:33.636Z,1006.89
2016-05-08T01:26:33.655Z,1006.86
2016-05-08T01:27:33.688Z,1006.87
2016-05-08T01:28:33.708Z,1006.87
2016-05-08T01:29:33.725Z,1006.83
2016-05-08T01:30:33.760Z,1006.83
2016-05-08T01:31:33.777Z,1006.87
2016-05-08T01:32:33.797Z,1006.84
2016-05-08T01:33:33.830Z,1006.87
2016-05-08T01:34:33.849Z,1006.88
2016-05-08T01:35:33.882Z,1006.89
2016-05-08T01:36:33.901Z,1006.92
2016-05-08T01:37:33.918Z,1006.88
2016-05-08T01:38:33.954Z,1006.87
2016-05-08T01:39:33.971Z,1006.88
2016-05-08T01:40:33.990Z,1006.89
2016-05-08T01:41:34.023Z,1006.82
2016-05-08T01:42:34.042Z,1006.83
2016-05-08T01:43:34.060Z,1006.82
2016-05-08T01:44:34.095Z,1006.76
2016-05-08T01:45:34.112Z,1006.79
2016-05-08T01:46:34.131Z,1006.76
2016-05-08T01:47:34.165Z,1006.77
2016-05-08T01:48:34.183Z,1006.79
2016-05-08T01:49:34.201Z,1006.75
2016-05-08T01:50:34.236Z,1006.78
2016-05-08T01:51:34.253Z,1006.77
2016-05-08T01:52:34.287Z,1006.78
2016-05-08T01:53:34.306Z,1006.73
2016-05-08T01:54:34.325Z,1006.73
2016-05-08T01:55:34.342Z,1006.72
2016-05-08T01:56:34.377Z,1006.74
2016-05-08T01:57:34.394Z,1006.74
2016-05-08T01:58:34.413Z,1006.76
2016-05-08T01:59:34.447Z,1006.76
2016-05-08T02:00:34.466Z,1006.74
2016-05-08T02:01:34.500Z,1006.79
2016-05-08T02:02:34.518Z,1006.75
2016-05-08T02:03:34.535Z,1006.74
2016-05-08T02:04:34.569Z,1006.72
2016-05-08T02:05:34.588Z,1006.75
2016-05-08T02:06:34.607Z,1006.79
2016-05-08T02:07:34.641Z,1006.78
2016-05-08T02:08:34.659Z,1006.79
2016-05-08T02:09:34.676Z,1006.77
2016-05-08T02:10:34.711Z,1006.77
2016-05-08T02:11:34.730Z,1006.79
2016-05-08T02:12:36.107Z,1006.72
2016-05-08T02:13:34.782Z,1006.76
2016-05-08T02:14:34.800Z,1006.76
2016-05-08T02:15:34.818Z,1006.81
2016-05-08T02:16:34.851Z,1006.81
2016-05-08T02:17:34.887Z,1006.84
2016-05-08T02:18:34.889Z,1006.81
2016-05-08T02:19:34.923Z,1006.81
2016-05-08T02:20:34.941Z,1006.81
2016-05-08T02:21:34.959Z,1006.8
2016-05-08T02:22:34.993Z,1006.82
2016-05-08T02:23:35.012Z,1006.78
2016-05-08T02:24:35.030Z,1006.73
2016-05-08T02:25:35.064Z,1006.76
2016-05-08T02:26:35.082Z,1006.76
2016-05-08T02:27:35.319Z,1006.72
2016-05-08T02:28:35.134Z,1006.76
2016-05-08T02:29:35.153Z,1006.77
2016-05-08T02:30:35.171Z,1006.75
2016-05-08T02:31:35.205Z,1006.74
2016-05-08T02:32:35.224Z,1006.78
2016-05-08T02:33:35.241Z,1006.79
2016-05-08T02:34:35.275Z,1006.77
2016-05-08T02:35:35.294Z,1006.72
2016-05-08T02:36:35.312Z,1006.77
2016-05-08T02:37:35.346Z,1006.79
2016-05-08T02:38:35.365Z,1006.79
2016-05-08T02:39:35.382Z,1006.77
2016-05-08T02:40:35.416Z,1006.82
2016-05-08T02:41:35.468Z,1006.78
2016-05-08T02:42:35.533Z,1006.77
2016-05-08T02:43:35.614Z,1006.73
2016-05-08T02:44:35.681Z,1006.74
2016-05-08T02:45:35.746Z,1006.73
2016-05-08T02:46:35.807Z,1006.72
2016-05-08T02:47:35.844Z,1006.75
2016-05-08T02:48:35.879Z,1006.77
2016-05-08T02:49:35.930Z,1006.75
2016-05-08T02:50:35.966Z,1006.75
2016-05-08T02:51:35.993Z,1006.78
2016-05-08T02:52:36.033Z,1006.76
2016-05-08T02:53:36.059Z,1006.78
2016-05-08T02:54:36.083Z,1006.77
2016-05-08T02:55:36.122Z,1006.77
2016-05-08T02:56:36.145Z,1006.77
2016-05-08T02:57:36.165Z,1006.81
2016-05-08T02:58:36.186Z,1006.74
2016-05-08T02:59:36.222Z,1006.73
2016-05-08T03:00:36.243Z,1006.82
2016-05-08T03:01:36.262Z,1006.78
2016-05-08T03:02:36.297Z,1006.8
2016-05-08T03:03:36.315Z,1006.75
2016-05-08T03:04:36.335Z,1006.79
2016-05-08T03:05:36.370Z,1006.76
2016-05-08T03:06:36.389Z,1006.77
2016-05-08T03:07:36.407Z,1006.74
2016-05-08T03:08:36.442Z,1006.76
2016-05-08T03:09:36.460Z,1006.76
2016-05-08T03:10:36.479Z,1006.76
2016-05-08T03:11:36.513Z,1006.77
2016-05-08T03:12:36.532Z,1006.77
2016-05-08T03:13:36.549Z,1006.75
2016-05-08T03:14:36.584Z,1006.75
2016-05-08T03:15:36.601Z,1006.75
2016-05-08T03:16:36.621Z,1006.76
2016-05-08T03:17:36.654Z,1006.75
2016-05-08T03:18:36.673Z,1006.73
2016-05-08T03:19:36.690Z,1006.75
2016-05-08T03:20:36.710Z,1006.75
2016-05-08T03:21:36.743Z,1006.72
2016-05-08T03:22:36.762Z,1006.67
2016-05-08T03:23:36.779Z,1006.72
2016-05-08T03:24:36.814Z,1006.71
2016-05-08T03:25:36.831Z,1006.66
2016-05-08T03:26:36.851Z,1006.71
2016-05-08T03:27:37.275Z,1006.69
2016-05-08T03:28:36.903Z,1006.76
2016-05-08T03:29:36.936Z,1006.71
2016-05-08T03:30:36.940Z,1006.73
2016-05-08T03:31:36.972Z,1006.73
2016-05-08T03:32:36.992Z,1006.7
2016-05-08T03:33:37.041Z,1006.74
2016-05-08T03:34:37.043Z,1006.75
2016-05-08T03:35:37.062Z,1006.73
2016-05-08T03:36:37.080Z,1006.77
2016-05-08T03:37:37.114Z,1006.73
2016-05-08T03:38:37.132Z,1006.73
2016-05-08T03:39:37.151Z,1006.76
2016-05-08T03:40:37.185Z,1006.74
2016-05-08T03:41:37.202Z,1006.78
2016-05-08T03:42:37.222Z,1006.72
2016-05-08T03:43:37.255Z,1006.74
2016-05-08T03:44:37.274Z,1006.75
2016-05-08T03:45:37.292Z,1006.75
2016-05-08T03:46:37.310Z,1006.78
2016-05-08T03:47:37.344Z,1006.73
2016-05-08T03:48:37.363Z,1006.73
2016-05-08T03:49:37.381Z,1006.7
2016-05-08T03:50:37.415Z,1006.74
2016-05-08T03:51:37.433Z,1006.75
2016-05-08T03:52:37.451Z,1006.76
2016-05-08T03:53:37.485Z,1006.78
2016-05-08T03:54:37.504Z,1006.78
2016-05-08T03:55:37.522Z,1006.78
2016-05-08T03:56:37.540Z,1006.78
2016-05-08T03:57:37.575Z,1006.78
2016-05-08T03:58:37.592Z,1006.83
2016-05-08T03:59:37.611Z,1006.82
2016-05-08T04:00:37.645Z,1006.81
2016-05-08T04:01:37.664Z,1006.82
2016-05-08T04:02:37.681Z,1006.8
2016-05-08T04:03:37.716Z,1006.8
2016-05-08T04:04:37.733Z,1006.83
2016-05-08T04:05:37.752Z,1006.76
2016-05-08T04:06:37.770Z,1006.82
2016-05-08T04:07:37.805Z,1006.81
2016-05-08T04:08:37.822Z,1006.84
2016-05-08T04:09:37.841Z,1006.8
2016-05-08T04:10:37.891Z,1006.86
2016-05-08T04:11:37.894Z,1006.86
2016-05-08T04:12:37.911Z,1006.86
2016-05-08T04:13:37.946Z,1006.92
2016-05-08T04:14:37.963Z,1006.9
2016-05-08T04:15:37.982Z,1006.91
2016-05-08T04:16:38.016Z,1006.96
2016-05-08T04:17:38.035Z,1006.97
2016-05-08T04:18:38.052Z,1006.96
2016-05-08T04:19:38.071Z,1006.95
2016-05-08T04:20:38.105Z,1006.94
2016-05-08T04:21:38.124Z,1006.93
2016-05-08T04:22:38.142Z,1006.96
2016-05-08T04:23:38.175Z,1006.94
2016-05-08T04:24:38.193Z,1006.97
2016-05-08T04:25:38.212Z,1006.98
2016-05-08T04:26:38.231Z,1006.97
2016-05-08T04:27:38.265Z,1007.01
2016-05-08T04:28:38.283Z,1007.01
2016-05-08T04:29:38.300Z,1007
2016-05-08T04:30:38.334Z,1007.04
2016-05-08T04:31:38.354Z,1007.01
2016-05-08T04:32:38.372Z,1007.03
2016-05-08T04:33:38.389Z,1007.05
2016-05-08T04:34:38.424Z,1007.08
2016-05-08T04:35:38.441Z,1007.05
2016-05-08T04:36:38.461Z,1007.04
2016-05-08T04:37:38.494Z,1007.06
2016-05-08T04:38:38.513Z,1007.08
2016-05-08T04:39:38.530Z,1007.06
2016-05-08T04:40:38.550Z,1007.08
2016-05-08T04:41:38.583Z,1007.08
2016-05-08T04:42:38.601Z,1007.09
2016-05-08T04:43:38.619Z,1007.07
2016-05-08T04:44:38.655Z,1007.11
2016-05-08T04:45:38.671Z,1007.06
2016-05-08T04:46:38.691Z,1007.09
2016-05-08T04:47:38.724Z,1007.09
2016-05-08T04:48:38.742Z,1007.1
2016-05-08T04:49:38.760Z,1007.08
2016-05-08T04:50:38.780Z,1007.09
2016-05-08T04:51:38.813Z,1007.14
2016-05-08T04:52:38.832Z,1007.12
2016-05-08T04:53:38.850Z,1007.12
2016-05-08T04:54:38.884Z,1007.13
2016-05-08T04:55:38.901Z,1007.11
2016-05-08T04:56:38.921Z,1007.1
2016-05-08T04:57:38.954Z,1007.12
2016-05-08T04:58:38.972Z,1007.12
2016-05-08T04:59:38.991Z,1007.15
2016-05-08T05:00:39.025Z,1007.15
2016-05-08T05:01:39.043Z,1007.17
2016-05-08T05:02:39.062Z,1007.15
2016-05-08T05:03:39.080Z,1007.21
2016-05-08T05:04:39.098Z,1007.19
2016-05-08T05:05:39.132Z,1007.19
2016-05-08T05:06:39.150Z,1007.21
2016-05-08T05:07:39.169Z,1007.23
2016-05-08T05:08:39.203Z,1007.28
2016-05-08T05:09:39.221Z,1007.28
2016-05-08T05:10:39.239Z,1007.24
2016-05-08T05:11:39.274Z,1007.24
2016-05-08T05:12:39.588Z,1007.24
2016-05-08T05:13:39.310Z,1007.25
2016-05-08T05:14:39.344Z,1007.23
2016-05-08T05:15:39.362Z,1007.25
2016-05-08T05:16:39.380Z,1007.27
2016-05-08T05:17:39.399Z,1007.25
2016-05-08T05:18:39.432Z,1007.24
2016-05-08T05:19:39.451Z,1007.23
2016-05-08T05:20:39.469Z,1007.19
2016-05-08T05:21:39.504Z,1007.24
2016-05-08T05:22:39.521Z,1007.26
2016-05-08T05:23:39.540Z,1007.22
2016-05-08T05:24:39.574Z,1007.26
2016-05-08T05:25:39.593Z,1007.26
2016-05-08T05:26:39.610Z,1007.26
2016-05-08T05:27:39.645Z,1007.25
2016-05-08T05:28:39.662Z,1007.25
2016-05-08T05:29:39.681Z,1007.26
2016-05-08T05:30:39.715Z,1007.28
2016-05-08T05:31:39.734Z,1007.28
2016-05-08T05:32:39.751Z,1007.29
2016-05-08T05:33:39.770Z,1007.27
2016-05-08T05:34:39.804Z,1007.27
2016-05-08T05:35:39.823Z,1007.31
2016-05-08T05:36:39.841Z,1007.26
2016-05-08T05:37:39.874Z,1007.3
2016-05-08T05:38:39.892Z,1007.29
2016-05-08T05:39:39.911Z,1007.31
2016-05-08T05:40:39.945Z,1007.3
2016-05-08T05:41:39.964Z,1007.32
2016-05-08T05:42:39.997Z,1007.31
2016-05-08T05:43:40.015Z,1007.35
2016-05-08T05:44:40.049Z,1007.31
2016-05-08T05:45:40.053Z,1007.34
2016-05-08T05:46:40.086Z,1007.34
2016-05-08T05:47:40.105Z,1007.32
2016-05-08T05:48:40.123Z,1007.37
2016-05-08T05:49:40.157Z,1007.4
2016-05-08T05:50:40.174Z,1007.37
2016-05-08T05:51:40.210Z,1007.39
2016-05-08T05:52:40.227Z,1007.37
2016-05-08T05:53:40.246Z,1007.38
2016-05-08T05:54:40.279Z,1007.39
2016-05-08T05:55:40.298Z,1007.41
2016-05-08T05:56:40.331Z,1007.4
2016-05-08T05:57:40.428Z,1007.42
2016-05-08T05:58:40.384Z,1007.44
2016-05-08T05:59:40.403Z,1007.45
2016-05-08T06:00:40.420Z,1007.51
2016-05-08T06:01:40.454Z,1007.52
2016-05-08T06:02:40.473Z,1007.49
2016-05-08T06:03:40.492Z,1007.55
2016-05-08T06:04:40.526Z,1007.55
2016-05-08T06:05:40.559Z,1007.57
2016-05-08T06:06:40.577Z,1007.63
2016-05-08T06:07:40.595Z,1007.59
2016-05-08T06:08:40.630Z,1007.6
2016-05-08T06:09:40.647Z,1007.56
2016-05-08T06:10:40.683Z,1007.56
2016-05-08T06:11:40.700Z,1007.57
2016-05-08T06:12:40.719Z,1007.58
2016-05-08T06:13:40.753Z,1007.59
2016-05-08T06:14:40.771Z,1007.63
2016-05-08T06:15:40.805Z,1007.63
2016-05-08T06:16:40.823Z,1007.63
2016-05-08T06:17:40.857Z,1007.62
2016-05-08T06:18:40.875Z,1007.63
2016-05-08T06:19:40.910Z,1007.63
2016-05-08T06:20:40.927Z,1007.61
2016-05-08T06:21:40.962Z,1007.63
2016-05-08T06:22:40.979Z,1007.62
2016-05-08T06:23:41.013Z,1007.65
2016-05-08T06:24:41.032Z,1007.65
2016-05-08T06:25:41.065Z,1007.64
2016-05-08T06:26:41.085Z,1007.67
2016-05-08T06:27:41.118Z,1007.64
2016-05-08T06:28:41.137Z,1007.65
2016-05-08T06:29:41.170Z,1007.69
2016-05-08T06:30:41.189Z,1007.71
2016-05-08T06:31:41.223Z,1007.73
2016-05-08T06:32:41.241Z,1007.74
2016-05-08T06:33:41.275Z,1007.76
2016-05-08T06:34:41.293Z,1007.66
2016-05-08T06:35:41.328Z,1007.74
2016-05-08T06:36:41.345Z,1007.73
2016-05-08T06:37:41.380Z,1007.74
2016-05-08T06:38:41.397Z,1007.69
2016-05-08T06:39:41.431Z,1007.68
2016-05-08T06:40:41.450Z,1007.71
2016-05-08T06:41:41.484Z,1007.68
2016-05-08T06:42:42.019Z,1007.68
2016-05-08T06:43:41.536Z,1007.68
2016-05-08T06:44:41.570Z,1007.7
2016-05-08T06:45:41.589Z,1007.7
2016-05-08T06:46:41.622Z,1007.68
2016-05-08T06:47:41.641Z,1007.72
2016-05-08T06:48:41.675Z,1007.75
2016-05-08T06:49:41.693Z,1007.72
2016-05-08T06:50:41.727Z,1007.74
2016-05-08T06:51:41.746Z,1007.78
2016-05-08T06:52:41.780Z,1007.75
2016-05-08T06:53:41.798Z,1007.73
2016-05-08T06:54:41.832Z,1007.77
2016-05-08T06:55:41.849Z,1007.74
2016-05-08T06:56:41.884Z,1007.73
2016-05-08T06:57:41.917Z,1007.72
2016-05-08T06:58:41.936Z,1007.8
2016-05-08T06:59:41.970Z,1007.75
2016-05-08T07:00:41.988Z,1007.75
2016-05-08T07:01:42.023Z,1007.75
2016-05-08T07:02:42.056Z,1007.75
2016-05-08T07:03:42.075Z,1007.72
2016-05-08T07:04:42.109Z,1007.72
2016-05-08T07:05:42.126Z,1007.72
2016-05-08T07:06:42.161Z,1007.73
2016-05-08T07:07:42.178Z,1007.72
2016-05-08T07:08:42.213Z,1007.71
2016-05-08T07:09:42.247Z,1007.71
2016-05-08T07:10:42.264Z,1007.72
2016-05-08T07:11:42.299Z,1007.73
2016-05-08T07:12:42.333Z,1007.76
2016-05-08T07:13:42.352Z,1007.78
2016-05-08T07:14:42.386Z,1007.74
2016-05-08T07:15:42.403Z,1007.75
2016-05-08T07:16:42.438Z,1007.75
2016-05-08T07:17:42.471Z,1007.76
2016-05-08T07:18:42.490Z,1007.77
2016-05-08T07:19:42.524Z,1007.78
2016-05-08T07:20:42.541Z,1007.78
2016-05-08T07:21:42.577Z,1007.82
2016-05-08T07:22:42.610Z,1007.79
2016-05-08T07:23:42.629Z,1007.76
2016-05-08T07:24:42.663Z,1007.8
2016-05-08T07:25:42.696Z,1007.81
2016-05-08T07:26:42.715Z,1007.77
2016-05-08T07:27:42.749Z,1007.8
2016-05-08T07:28:42.782Z,1007.81
2016-05-08T07:29:42.800Z,1007.79
2016-05-08T07:30:42.835Z,1007.81
2016-05-08T07:31:42.868Z,1007.82
2016-05-08T07:32:42.887Z,1007.79
2016-05-08T07:33:42.921Z,1007.81
2016-05-08T07:34:42.954Z,1007.79
2016-05-08T07:35:42.973Z,1007.78
2016-05-08T07:36:43.007Z,1007.82
2016-05-08T07:37:43.026Z,1007.8
2016-05-08T07:38:43.059Z,1007.77
2016-05-08T07:39:43.092Z,1007.79
2016-05-08T07:40:43.112Z,1007.78
2016-05-08T07:41:43.145Z,1007.78
2016-05-08T07:42:43.180Z,1007.8
2016-05-08T07:43:43.197Z,1007.76
2016-05-08T07:44:43.231Z,1007.76
2016-05-08T07:45:43.266Z,1007.82
2016-05-08T07:46:43.284Z,1007.82
2016-05-08T07:47:43.318Z,1007.81
2016-05-08T07:48:43.351Z,1007.81
2016-05-08T07:49:43.369Z,1007.78
2016-05-08T07:50:43.404Z,1007.85
2016-05-08T07:51:43.422Z,1007.84
2016-05-08T07:52:43.457Z,1007.84
2016-05-08T07:53:43.490Z,1007.83
2016-05-08T07:54:43.508Z,1007.83
2016-05-08T07:55:43.543Z,1007.81
2016-05-08T07:56:43.576Z,1007.8
2016-05-08T07:57:43.595Z,1007.82
2016-05-08T07:58:43.629Z,1007.8
2016-05-08T07:59:43.662Z,1007.8
2016-05-08T08:00:43.681Z,1007.8
2016-05-08T08:01:43.715Z,1007.81
2016-05-08T08:02:43.733Z,1007.83
2016-05-08T08:03:43.767Z,1007.81
2016-05-08T08:04:43.785Z,1007.82
2016-05-08T08:05:43.820Z,1007.84
2016-05-08T08:06:43.853Z,1007.85
2016-05-08T08:07:43.872Z,1007.82
2016-05-08T08:08:43.906Z,1007.85
2016-05-08T08:09:43.923Z,1007.83
2016-05-08T08:10:43.958Z,1007.85
2016-05-08T08:11:43.992Z,1007.88
2016-05-08T08:12:44.260Z,1007.83
2016-05-08T08:13:44.044Z,1007.83
2016-05-08T08:14:44.078Z,1007.88
2016-05-08T08:15:44.097Z,1007.86
2016-05-08T08:16:44.130Z,1007.83
2016-05-08T08:17:44.149Z,1007.8
2016-05-08T08:18:44.183Z,1007.82
2016-05-08T08:19:44.216Z,1007.78
2016-05-08T08:20:44.235Z,1007.84
2016-05-08T08:21:44.269Z,1007.83
2016-05-08T08:22:44.287Z,1007.86
2016-05-08T08:23:44.321Z,1007.84
2016-05-08T08:24:44.355Z,1007.8
2016-05-08T08:25:44.373Z,1007.84
2016-05-08T08:26:44.407Z,1007.83
2016-05-08T08:27:44.441Z,1007.85
2016-05-08T08:28:44.460Z,1007.83
2016-05-08T08:29:44.477Z,1007.82
2016-05-08T08:30:44.512Z,1007.83
2016-05-08T08:31:44.546Z,1007.83
2016-05-08T08:32:44.564Z,1007.81
2016-05-08T08:33:44.598Z,1007.82
2016-05-08T08:34:44.631Z,1007.79
2016-05-08T08:35:44.650Z,1007.8
2016-05-08T08:36:44.684Z,1007.79
2016-05-08T08:37:44.703Z,1007.78
2016-05-08T08:38:44.736Z,1007.79
2016-05-08T08:39:44.770Z,1007.84
2016-05-08T08:40:44.789Z,1007.81
2016-05-08T08:41:44.823Z,1007.81
2016-05-08T08:42:44.841Z,1007.86
2016-05-08T08:43:44.874Z,1007.85
2016-05-08T08:44:44.892Z,1007.83
2016-05-08T08:45:44.927Z,1007.84
2016-05-08T08:46:44.961Z,1007.83
2016-05-08T08:47:44.979Z,1007.86
2016-05-08T08:48:45.013Z,1007.86
2016-05-08T08:49:45.031Z,1007.87
2016-05-08T08:50:45.066Z,1007.86
2016-05-08T08:51:45.099Z,1007.84
2016-05-08T08:52:45.118Z,1007.82
2016-05-08T08:53:45.151Z,1007.83
2016-05-08T08:54:45.169Z,1007.81
2016-05-08T08:55:45.204Z,1007.8
2016-05-08T08:56:45.221Z,1007.8
2016-05-08T08:57:45.257Z,1007.77
2016-05-08T08:58:45.290Z,1007.75
2016-05-08T08:59:45.308Z,1007.8
2016-05-08T09:00:45.343Z,1007.78
2016-05-08T09:01:45.360Z,1007.7
2016-05-08T09:02:45.395Z,1007.78
2016-05-08T09:03:45.412Z,1007.72
2016-05-08T09:04:45.446Z,1007.76
2016-05-08T09:05:45.481Z,1007.75
2016-05-08T09:06:45.498Z,1007.72
2016-05-08T09:07:45.534Z,1007.72
2016-05-08T09:08:45.551Z,1007.7
2016-05-08T09:09:45.584Z,1007.72
2016-05-08T09:10:45.604Z,1007.72
2016-05-08T09:11:45.637Z,1007.69
2016-05-08T09:12:45.922Z,1007.68
2016-05-08T09:13:45.689Z,1007.71
2016-05-08T09:14:45.723Z,1007.66
2016-05-08T09:15:45.742Z,1007.63
2016-05-08T09:16:45.775Z,1007.59
2016-05-08T09:17:45.794Z,1007.62
2016-05-08T09:18:45.827Z,1007.64
2016-05-08T09:19:45.847Z,1007.59
2016-05-08T09:20:45.881Z,1007.6
2016-05-08T09:21:45.899Z,1007.59
2016-05-08T09:22:45.933Z,1007.57
2016-05-08T09:23:45.966Z,1007.57
2016-05-08T09:24:45.985Z,1007.54
2016-05-08T09:25:46.019Z,1007.54
2016-05-08T09:26:46.037Z,1007.5
2016-05-08T09:27:46.071Z,1007.48
2016-05-08T09:28:46.090Z,1007.48
2016-05-08T09:29:46.124Z,1007.51
2016-05-08T09:30:46.141Z,1007.48
2016-05-08T09:31:46.176Z,1007.45
2016-05-08T09:32:46.209Z,1007.44
2016-05-08T09:33:46.229Z,1007.45
2016-05-08T09:34:46.262Z,1007.42
2016-05-08T09:35:46.279Z,1007.39
2016-05-08T09:36:46.314Z,1007.39
2016-05-08T09:37:46.332Z,1007.35
2016-05-08T09:38:46.367Z,1007.34
2016-05-08T09:39:46.384Z,1007.34
2016-05-08T09:40:46.418Z,1007.35
2016-05-08T09:41:46.453Z,1007.33
2016-05-08T09:42:46.470Z,1007.32
2016-05-08T09:43:46.505Z,1007.31
2016-05-08T09:44:46.522Z,1007.33
2016-05-08T09:45:46.556Z,1007.31
2016-05-08T09:46:46.576Z,1007.26
2016-05-08T09:47:46.609Z,1007.23
2016-05-08T09:48:46.628Z,1007.33
2016-05-08T09:49:46.661Z,1007.29
2016-05-08T09:50:46.680Z,1007.31
2016-05-08T09:51:46.714Z,1007.31
2016-05-08T09:52:46.747Z,1007.33
2016-05-08T09:53:46.766Z,1007.33
2016-05-08T09:54:46.799Z,1007.28
2016-05-08T09:55:46.819Z,1007.29
2016-05-08T09:56:46.852Z,1007.24
2016-05-08T09:57:46.871Z,1007.25
2016-05-08T09:58:46.905Z,1007.19
2016-05-08T09:59:46.923Z,1007.23
2016-05-08T10:00:46.957Z,1007.21
2016-05-08T10:01:46.990Z,1007.16
2016-05-08T10:02:47.009Z,1007.19
2016-05-08T10:03:47.043Z,1007.26
2016-05-08T10:04:47.062Z,1007.19
2016-05-08T10:05:47.095Z,1007.22
2016-05-08T10:06:47.113Z,1007.17
2016-05-08T10:07:47.148Z,1007.17
2016-05-08T10:08:47.165Z,1007.16
2016-05-08T10:09:47.200Z,1007.21
2016-05-08T10:10:47.217Z,1007.18
2016-05-08T10:11:47.251Z,1007.18
2016-05-08T10:12:47.271Z,1007.18
2016-05-08T10:13:47.303Z,1007.14
2016-05-08T10:14:47.323Z,1007.15
2016-05-08T10:15:47.356Z,1007.13
2016-05-08T10:16:47.390Z,1007.13
2016-05-08T10:17:47.409Z,1007.12
2016-05-08T10:18:47.442Z,1007.13
2016-05-08T10:19:47.461Z,1007.09
2016-05-08T10:20:47.495Z,1007.07
2016-05-08T10:21:47.513Z,1007.13
2016-05-08T10:22:47.547Z,1007.12
2016-05-08T10:23:47.561Z,1007.14
2016-05-08T10:24:47.595Z,1007.15
2016-05-08T10:25:47.628Z,1007.11
2016-05-08T10:26:47.647Z,1007.14
2016-05-08T10:27:47.680Z,1007.17
2016-05-08T10:28:47.699Z,1007.2
2016-05-08T10:29:47.733Z,1007.17
2016-05-08T10:30:47.752Z,1007.16
2016-05-08T10:31:47.785Z,1007.2
2016-05-08T10:32:47.804Z,1007.19
2016-05-08T10:33:47.838Z,1007.17
2016-05-08T10:34:47.855Z,1007.16
2016-05-08T10:35:47.890Z,1007.12
2016-05-08T10:36:47.923Z,1007.14
2016-05-08T10:37:47.942Z,1007.13
2016-05-08T10:38:47.960Z,1007.08
2016-05-08T10:39:47.993Z,1007.11
2016-05-08T10:40:48.028Z,1007.06
2016-05-08T10:41:48.062Z,1007.1
2016-05-08T10:42:48.081Z,1007.05
2016-05-08T10:43:48.098Z,1007.04
2016-05-08T10:44:48.148Z,1007.04
2016-05-08T10:45:48.151Z,1007.04
2016-05-08T10:46:48.185Z,1007.04
2016-05-08T10:47:48.203Z,1006.99
2016-05-08T10:48:48.237Z,1006.98
2016-05-08T10:49:48.256Z,1007.01
2016-05-08T10:50:48.290Z,1006.97
2016-05-08T10:51:48.323Z,1007.04
2016-05-08T10:52:48.342Z,1007.03
2016-05-08T10:53:48.375Z,1007.05
2016-05-08T10:54:48.394Z,1007.14
2016-05-08T10:55:48.428Z,1007.11
2016-05-08T10:56:48.447Z,1007.21
2016-05-08T10:57:48.605Z,1007.16
2016-05-08T10:58:48.499Z,1007.14
2016-05-08T10:59:48.533Z,1007.15
2016-05-08T11:00:48.550Z,1007.17
2016-05-08T11:01:48.585Z,1007.17
2016-05-08T11:02:48.602Z,1007.18
2016-05-08T11:03:48.637Z,1007.16
2016-05-08T11:04:48.654Z,1007.15
2016-05-08T11:05:48.688Z,1007.11
2016-05-08T11:06:48.724Z,1007.13
2016-05-08T11:07:48.741Z,1007.1
2016-05-08T11:08:48.759Z,1007.14
2016-05-08T11:09:48.793Z,1007.15
2016-05-08T11:10:48.827Z,1007.18
2016-05-08T11:11:48.846Z,1007.17
2016-05-08T11:12:48.879Z,1007.18
2016-05-08T11:13:48.898Z,1007.14
2016-05-08T11:14:48.932Z,1007.08
2016-05-08T11:15:48.951Z,1007.1
2016-05-08T11:16:48.985Z,1007.07
2016-05-08T11:17:49.003Z,1007.13
2016-05-08T11:18:49.037Z,1007.14
2016-05-08T11:19:49.055Z,1007.14
2016-05-08T11:20:49.089Z,1007.1
2016-05-08T11:21:49.106Z,1007.16
2016-05-08T11:22:49.141Z,1007.07
2016-05-08T11:23:49.159Z,1007.1
2016-05-08T11:24:49.194Z,1007.1
2016-05-08T11:25:49.211Z,1007.1
2016-05-08T11:26:49.245Z,1007.14
2016-05-08T11:27:49.264Z,1007.09
2016-05-08T11:28:49.297Z,1007.12
2016-05-08T11:29:49.332Z,1007.11
2016-05-08T11:30:49.349Z,1007.16
2016-05-08T11:31:49.384Z,1007.16
2016-05-08T11:32:49.403Z,1007.17
2016-05-08T11:33:49.436Z,1007.14
2016-05-08T11:34:49.455Z,1007.14
2016-05-08T11:35:49.488Z,1007.14
2016-05-08T11:36:49.507Z,1007.25
2016-05-08T11:37:49.541Z,1007.18
2016-05-08T11:38:49.559Z,1007.19
2016-05-08T11:39:49.593Z,1007.22
2016-05-08T11:40:49.612Z,1007.13
2016-05-08T11:41:49.645Z,1007.21
2016-05-08T11:42:49.663Z,1007.16
2016-05-08T11:43:49.698Z,1007.16
2016-05-08T11:44:49.731Z,1007.22
2016-05-08T11:45:49.750Z,1007.21
2016-05-08T11:46:49.783Z,1007.14
2016-05-08T11:47:49.834Z,1007.15
2016-05-08T11:48:49.911Z,1007.2
2016-05-08T11:49:49.970Z,1007.19
2016-05-08T11:50:50.047Z,1007.17
2016-05-08T11:51:50.106Z,1007.15
2016-05-08T11:52:50.161Z,1007.13
2016-05-08T11:53:50.195Z,1007.11
2016-05-08T11:54:50.243Z,1007.14
2016-05-08T11:55:50.277Z,1007.12
2016-05-08T11:56:50.325Z,1007.11
2016-05-08T11:57:50.352Z,1007.12
2016-05-08T11:58:50.391Z,1007.07
2016-05-08T11:59:50.415Z,1007.08
2016-05-08T12:00:50.454Z,1007.1
2016-05-08T12:01:50.478Z,1007.09
2016-05-08T12:02:50.515Z,1007.12
2016-05-08T12:03:50.534Z,1007.14
2016-05-08T12:04:50.571Z,1007.17
2016-05-08T12:05:50.590Z,1007.13
2016-05-08T12:06:50.627Z,1007.09
2016-05-08T12:07:50.676Z,1007.15